Terminal Aerodrome Forecast
Issued by NWS

Home | Current Version | Previous Version | Graphics & Text | Print | Product List | Glossary On
Versions: 1 2 3 4 5 6 7 8 9 10 11 12 13 14 15 16 17 18 19 20 21 22
000
FTUS43 KBIS 252300
TAFDIK
TAF
KDIK 252320Z 2600/2624 30022G30KT P6SM OVC024
     FM260600 34014KT P6SM OVC035
     FM261600 03005KT P6SM BKN035
     FM261700 09005KT P6SM BKN035=

USA.gov is the U.S. government's official web portal to all federal, state and local government web resources and services.